createdAt,value
2022-11-14T00:02:47.020Z,99098.75
2022-11-14T00:05:52.220Z,99080.13
2022-11-14T00:08:57.231Z,99101.31
2022-11-14T00:12:02.242Z,99098.69
2022-11-14T00:15:07.844Z,99097.13
2022-11-14T00:18:12.870Z,99105.69
2022-11-14T00:21:18.026Z,99106.53
2022-11-14T00:24:23.502Z,99123.59
2022-11-14T00:27:28.667Z,99112.91
2022-11-14T00:30:33.757Z,99112.63
2022-11-14T00:33:38.831Z,99111.19
2022-11-14T00:36:43.839Z,99098.44
2022-11-14T00:39:49.017Z,99102.56
2022-11-14T00:42:54.472Z,99100.41
2022-11-14T00:45:59.858Z,99095.59
2022-11-14T00:49:05.100Z,99089.41
2022-11-14T00:52:10.150Z,99093.94
2022-11-14T00:55:15.375Z,99103.44
2022-11-14T00:58:20.502Z,99098.41
2022-11-14T01:01:25.771Z,99095.28
2022-11-14T01:04:31.209Z,99082.28
2022-11-14T01:07:36.582Z,99088.34
2022-11-14T01:10:43.088Z,99072.97
2022-11-14T01:13:49.500Z,99074.13
2022-11-14T01:16:54.609Z,99076.66
2022-11-14T01:19:59.650Z,99060.28
2022-11-14T01:23:04.579Z,99062.72
2022-11-14T01:26:12.818Z,99059.59
2022-11-14T01:29:18.156Z,99008.91
2022-11-14T01:32:23.033Z,99040.28
2022-11-14T01:35:28.056Z,99051.22
2022-11-14T01:38:33.389Z,99049.47
2022-11-14T01:41:38.715Z,99037.63
2022-11-14T01:44:47.787Z,99039.75
2022-11-14T01:47:52.656Z,99041.25
2022-11-14T01:51:05.372Z,99029.13
2022-11-14T01:54:15.611Z,99027.13
2022-11-14T01:57:26.882Z,99009.94
2022-11-14T02:00:31.945Z,99017.56
2022-11-14T02:03:40.248Z,99017.47
2022-11-14T02:06:46.629Z,99020.09
2022-11-14T02:09:51.820Z,99014.25
2022-11-14T02:12:57.150Z,99013.66
2022-11-14T02:16:02.504Z,99006.78
2022-11-14T02:19:08.080Z,98993.22
2022-11-14T02:22:13.285Z,99007.84
2022-11-14T02:25:21.477Z,98988.00
2022-11-14T02:28:27.005Z,98999.09
2022-11-14T02:31:32.438Z,99005.75
2022-11-14T02:34:38.395Z,99007.97
2022-11-14T02:37:47.395Z,98996.69
2022-11-14T02:40:52.467Z,99006.28
2022-11-14T02:43:57.750Z,99012.13
2022-11-14T02:47:02.642Z,99007.09
2022-11-14T02:50:08.121Z,98998.78
2022-11-14T02:53:12.989Z,98992.72
2022-11-14T02:56:17.769Z,99003.91
2022-11-14T02:59:22.815Z,98997.34
2022-11-14T03:02:27.978Z,98958.31
2022-11-14T03:05:33.231Z,98994.56
2022-11-14T03:08:38.309Z,98996.09
2022-11-14T03:11:43.337Z,98991.94
2022-11-14T03:14:48.429Z,98984.34
2022-11-14T03:17:53.481Z,98995.63
2022-11-14T03:21:05.681Z,98996.56
2022-11-14T03:24:10.700Z,98933.47
2022-11-14T03:27:15.661Z,98979.47
2022-11-14T03:30:20.825Z,98989.06
2022-11-14T03:33:26.289Z,98984.97
2022-11-14T03:36:31.649Z,98987.50
2022-11-14T03:39:37.065Z,98967.03
2022-11-14T03:42:42.182Z,98964.69
2022-11-14T03:45:47.927Z,98962.31
2022-11-14T03:48:53.078Z,98958.94
2022-11-14T03:51:57.961Z,98954.47
2022-11-14T03:55:03.420Z,98947.59
2022-11-14T03:58:08.508Z,98946.63
2022-11-14T04:01:13.574Z,98944.84
2022-11-14T04:04:19.067Z,98928.69
2022-11-14T04:07:24.190Z,98929.31
2022-11-14T04:10:29.446Z,98932.66
2022-11-14T04:13:34.667Z,98931.78
2022-11-14T04:16:39.934Z,98938.53
2022-11-14T04:19:45.450Z,98940.47
2022-11-14T04:22:50.489Z,98850.84
2022-11-14T04:25:56.576Z,98940.56
2022-11-14T04:29:01.773Z,98937.34
2022-11-14T04:32:06.929Z,98940.25
2022-11-14T04:35:12.311Z,98946.53
2022-11-14T04:38:17.302Z,98944.06
2022-11-14T04:41:22.607Z,98942.19
2022-11-14T04:44:27.809Z,98945.53
2022-11-14T04:47:33.037Z,98948.78
2022-11-14T04:50:38.684Z,98947.94
2022-11-14T04:53:43.503Z,98939.25
2022-11-14T04:56:49.273Z,98908.19
2022-11-14T04:59:54.396Z,98906.84
2022-11-14T05:03:00.203Z,98893.72
2022-11-14T05:06:05.395Z,98880.84
2022-11-14T05:09:10.381Z,98877.25
2022-11-14T05:12:15.369Z,98881.28
2022-11-14T05:15:21.834Z,98895.69
2022-11-14T05:18:27.694Z,98905.78
2022-11-14T05:21:33.219Z,98891.19
2022-11-14T05:24:38.533Z,98894.22
2022-11-14T05:27:43.625Z,98901.97
2022-11-14T05:30:48.487Z,98905.19
2022-11-14T05:33:53.423Z,98901.41
2022-11-14T05:36:58.396Z,98882.59
2022-11-14T05:40:05.371Z,98881.16
2022-11-14T05:43:10.357Z,98887.88
2022-11-14T05:46:17.409Z,98883.41
2022-11-14T05:49:23.461Z,98878.31
2022-11-14T05:52:28.561Z,98865.81
2022-11-14T05:55:33.262Z,98884.00
2022-11-14T05:58:38.598Z,98886.44
2022-11-14T06:01:43.958Z,98880.41
2022-11-14T06:04:49.320Z,98874.44
2022-11-14T06:07:58.940Z,98890.50
2022-11-14T06:11:10.299Z,98875.59
2022-11-14T06:14:15.481Z,98890.22
2022-11-14T06:17:20.289Z,98894.34
2022-11-14T06:20:25.531Z,98896.81
2022-11-14T06:23:31.010Z,98894.00
2022-11-14T06:26:36.223Z,98898.31
2022-11-14T06:29:41.519Z,98911.47
2022-11-14T06:32:46.613Z,98907.09
2022-11-14T06:35:51.653Z,98895.91
2022-11-14T06:38:58.128Z,98895.06
2022-11-14T06:42:03.798Z,98889.84
2022-11-14T06:45:10.919Z,98896.78
2022-11-14T06:48:16.253Z,98895.94
2022-11-14T06:51:21.503Z,98878.84
2022-11-14T06:54:28.235Z,98893.53
2022-11-14T06:57:33.363Z,98896.84
2022-11-14T07:00:38.652Z,98881.59
2022-11-14T07:03:44.660Z,98877.84
2022-11-14T07:06:49.454Z,98901.50
2022-11-14T07:09:56.533Z,98901.81
2022-11-14T07:13:01.447Z,98890.06
2022-11-14T07:16:06.973Z,98832.72
2022-11-14T07:19:12.491Z,98875.03
2022-11-14T07:22:17.585Z,98863.53
2022-11-14T07:25:23.442Z,98869.13
2022-11-14T07:28:29.082Z,98864.09
2022-11-14T07:31:34.546Z,98875.28
2022-11-14T07:34:39.703Z,98875.53
2022-11-14T07:37:45.079Z,98863.47
2022-11-14T07:41:01.186Z,98883.09
2022-11-14T07:44:06.046Z,98879.06
2022-11-14T07:47:10.939Z,98882.31
2022-11-14T07:50:20.202Z,98887.81
2022-11-14T07:53:25.386Z,98893.00
2022-11-14T07:56:30.435Z,98907.22
2022-11-14T07:59:35.777Z,98883.06
2022-11-14T08:02:40.982Z,98890.13
2022-11-14T08:05:46.165Z,98908.38
2022-11-14T08:08:50.781Z,98913.47
2022-11-14T08:11:56.545Z,98912.28
2022-11-14T08:15:01.746Z,98908.72
2022-11-14T08:18:06.891Z,98928.66
2022-11-14T08:21:11.803Z,98922.81
2022-11-14T08:24:17.138Z,98922.41
2022-11-14T08:27:22.193Z,98917.94
2022-11-14T08:30:28.553Z,98918.19
2022-11-14T08:33:33.432Z,98928.69
2022-11-14T08:36:38.454Z,98914.88
2022-11-14T08:39:43.326Z,98936.63
2022-11-14T08:42:48.464Z,98938.63
2022-11-14T08:46:01.954Z,98930.34
2022-11-14T08:49:07.035Z,98933.75
2022-11-14T08:52:16.501Z,98929.47
2022-11-14T08:55:22.148Z,98940.97
2022-11-14T08:58:31.848Z,98938.63
2022-11-14T09:01:37.200Z,98883.66
2022-11-14T09:04:42.499Z,98945.03
2022-11-14T09:07:47.829Z,98938.03
2022-11-14T09:10:53.296Z,98938.84
2022-11-14T09:13:58.752Z,98908.56
2022-11-14T09:17:06.152Z,98920.72
2022-11-14T09:20:11.419Z,98930.94
2022-11-14T09:23:16.461Z,98935.25
2022-11-14T09:26:21.626Z,98933.75
2022-11-14T09:29:26.831Z,98919.22
2022-11-14T09:32:32.041Z,98924.53
2022-11-14T09:35:38.098Z,98914.25
2022-11-14T09:38:44.342Z,98916.94
2022-11-14T09:42:16.755Z,98917.09
2022-11-14T09:45:22.758Z,98913.78
2022-11-14T09:48:31.231Z,98891.56
2022-11-14T09:51:47.119Z,98912.38
2022-11-14T09:54:57.369Z,98902.16
2022-11-14T09:58:03.842Z,98905.81
2022-11-14T10:01:35.877Z,98895.63
2022-11-14T10:04:53.063Z,98895.75
2022-11-14T10:08:26.431Z,98896.69
2022-11-14T10:11:39.518Z,98882.13
2022-11-14T10:15:06.192Z,98884.72
2022-11-14T10:18:33.335Z,98881.28
2022-11-14T10:22:13.266Z,98890.78
2022-11-14T10:25:48.533Z,98878.72
2022-11-14T10:29:00.429Z,98885.63
2022-11-14T10:32:22.286Z,98826.19
2022-11-14T10:35:41.055Z,98874.38
2022-11-14T10:39:05.557Z,98875.13
2022-11-14T10:42:41.561Z,98881.09
2022-11-14T10:46:07.600Z,98872.47
2022-11-14T10:49:18.077Z,98858.69
2022-11-14T10:52:48.300Z,98816.47
2022-11-14T10:56:04.236Z,98873.28
2022-11-14T10:59:09.702Z,98868.16
2022-11-14T11:02:15.604Z,98810.50
2022-11-14T11:05:25.792Z,98868.13
2022-11-14T11:08:49.864Z,98869.03
2022-11-14T11:12:01.719Z,98863.00
2022-11-14T11:15:28.385Z,98859.59
2022-11-14T11:18:35.555Z,98851.03
2022-11-14T11:21:48.886Z,98857.91
2022-11-14T11:24:54.187Z,98851.84
2022-11-14T11:28:11.618Z,98845.78
2022-11-14T11:31:16.607Z,98831.97
2022-11-14T11:34:31.570Z,98837.16
2022-11-14T11:37:42.356Z,98833.53
2022-11-14T11:40:51.278Z,98835.22
2022-11-14T11:44:01.461Z,98831.69
2022-11-14T11:47:13.902Z,98810.97
2022-11-14T11:50:22.071Z,98812.66
2022-11-14T11:53:39.680Z,98790.31
2022-11-14T11:56:47.992Z,98809.22
2022-11-14T12:00:01.465Z,98804.09
2022-11-14T12:03:13.336Z,98796.25
2022-11-14T12:06:27.883Z,98804.81
2022-11-14T12:10:08.848Z,98783.31
2022-11-14T12:13:42.314Z,98803.88
2022-11-14T12:17:06.484Z,98796.97
2022-11-14T12:20:31.899Z,98792.66
2022-11-14T12:24:01.444Z,98796.13
2022-11-14T12:27:34.502Z,98790.06
2022-11-14T12:30:41.466Z,98787.44
2022-11-14T12:33:57.380Z,98796.06
2022-11-14T12:37:10.742Z,98803.66
2022-11-14T12:40:35.537Z,98791.19
2022-11-14T12:43:44.922Z,98796.09
2022-11-14T12:47:06.006Z,98795.84
2022-11-14T12:50:30.032Z,98774.91
2022-11-14T12:53:38.102Z,98786.63
2022-11-14T12:56:54.271Z,98791.78
2022-11-14T13:00:04.600Z,98785.97
2022-11-14T13:03:37.353Z,98789.59
2022-11-14T13:06:51.378Z,98797.53
2022-11-14T13:10:27.805Z,98806.38
2022-11-14T13:14:19.499Z,98804.69
2022-11-14T13:17:45.586Z,98799.53
2022-11-14T13:21:45.115Z,98789.16
2022-11-14T13:25:01.049Z,98791.75
2022-11-14T13:28:43.440Z,98784.09
2022-11-14T13:31:50.416Z,98784.09
2022-11-14T13:35:40.856Z,98785.06
2022-11-14T13:39:04.196Z,98791.03
2022-11-14T13:42:13.553Z,98781.34
2022-11-14T13:45:51.688Z,98781.22
2022-11-14T13:49:29.014Z,98789.69
2022-11-14T13:52:39.697Z,98780.06
2022-11-14T13:56:04.380Z,98779.97
2022-11-14T13:59:39.529Z,98779.75
2022-11-14T14:02:56.569Z,98777.94
2022-11-14T14:06:38.892Z,98781.06
2022-11-14T14:09:57.674Z,98770.56
2022-11-14T14:13:22.837Z,98768.63
2022-11-14T14:16:34.117Z,98780.38
2022-11-14T14:19:51.695Z,98769.75
2022-11-14T14:23:15.618Z,98769.28
2022-11-14T14:26:59.107Z,98776.84
2022-11-14T14:30:14.013Z,98781.00
2022-11-14T14:33:18.822Z,98772.25
2022-11-14T14:36:26.535Z,98776.09
2022-11-14T14:39:31.560Z,98773.69
2022-11-14T14:42:41.363Z,98774.84
2022-11-14T14:45:51.456Z,98781.13
2022-11-14T14:48:58.363Z,98777.09
2022-11-14T14:52:28.715Z,98781.50
2022-11-14T14:55:35.771Z,98784.22
2022-11-14T14:58:40.489Z,98779.78
2022-11-14T15:01:45.635Z,98774.03
2022-11-14T15:04:50.769Z,98784.44
2022-11-14T15:07:59.006Z,98784.63
2022-11-14T15:11:04.529Z,98784.81
2022-11-14T15:14:15.129Z,98782.16
2022-11-14T15:17:21.626Z,98788.47
2022-11-14T15:20:29.083Z,98787.56
2022-11-14T15:23:39.272Z,98786.88
2022-11-14T15:26:45.860Z,98787.13
2022-11-14T15:29:53.096Z,98792.38
2022-11-14T15:33:01.168Z,98776.16
2022-11-14T15:36:17.816Z,98783.94
2022-11-14T15:39:27.535Z,98791.06
2022-11-14T15:42:32.453Z,98792.88
2022-11-14T15:45:41.019Z,98791.38
2022-11-14T15:48:46.099Z,98788.13
2022-11-14T15:51:57.284Z,98794.16
2022-11-14T15:55:03.723Z,98793.47
2022-11-14T15:58:32.850Z,98804.06
2022-11-14T16:01:38.261Z,98808.28
2022-11-14T16:04:47.508Z,98812.72
2022-11-14T16:07:53.368Z,98811.97
2022-11-14T16:10:58.380Z,98808.53
2022-11-14T16:14:03.429Z,98816.38
2022-11-14T16:17:16.727Z,98797.53
2022-11-14T16:20:25.012Z,98814.78
2022-11-14T16:23:30.372Z,98803.66
2022-11-14T16:26:36.007Z,98808.78
2022-11-14T16:29:41.120Z,98819.13
2022-11-14T16:32:47.354Z,98821.72
2022-11-14T16:35:52.089Z,98818.25
2022-11-14T16:39:00.560Z,98829.47
2022-11-14T16:42:06.447Z,98831.22
2022-11-14T16:45:11.666Z,98825.22
2022-11-14T16:48:17.256Z,98832.13
2022-11-14T16:51:47.137Z,98837.28
2022-11-14T16:54:47.698Z,98836.47
2022-11-14T16:57:52.872Z,98837.34
2022-11-14T17:00:58.532Z,98843.41
2022-11-14T17:04:04.613Z,98840.78
2022-11-14T17:07:10.487Z,98851.16
2022-11-14T17:10:15.746Z,98846.00
2022-11-14T17:13:25.228Z,98845.13
2022-11-14T17:16:30.239Z,98848.56
2022-11-14T17:19:35.281Z,98852.00
2022-11-14T17:22:40.614Z,98843.38
2022-11-14T17:25:46.202Z,98850.25
2022-11-14T17:28:51.402Z,98853.66
2022-11-14T17:31:56.792Z,98850.19
2022-11-14T17:35:02.542Z,98856.22
2022-11-14T17:38:07.986Z,98858.81
2022-11-14T17:41:13.280Z,98857.97
2022-11-14T17:44:18.834Z,98868.31
2022-11-14T17:47:23.650Z,98870.06
2022-11-14T17:50:33.066Z,98870.06
2022-11-14T17:53:42.892Z,98864.91
2022-11-14T17:56:52.281Z,98871.78
2022-11-14T18:00:01.138Z,98861.47
2022-11-14T18:03:06.368Z,98869.22
2022-11-14T18:06:14.155Z,98862.34
2022-11-14T18:09:19.202Z,98852.03
2022-11-14T18:12:24.029Z,98858.03
2022-11-14T18:15:29.356Z,98860.63
2022-11-14T18:18:35.664Z,98861.50
2022-11-14T18:21:43.167Z,98870.13
2022-11-14T18:24:48.243Z,98861.50
2022-11-14T18:27:53.715Z,98878.69
2022-11-14T18:30:59.008Z,98874.41
2022-11-14T18:34:04.166Z,98862.31
2022-11-14T18:37:09.104Z,98857.16
2022-11-14T18:40:16.512Z,98864.03
2022-11-14T18:43:22.122Z,98860.59
2022-11-14T18:46:27.598Z,98869.22
2022-11-14T18:49:32.676Z,98859.75
2022-11-14T18:52:39.089Z,98867.50
2022-11-14T18:55:45.006Z,98849.44
2022-11-14T18:58:56.167Z,98866.66
2022-11-14T19:02:02.316Z,98852.88
2022-11-14T19:05:08.119Z,98869.22
2022-11-14T19:08:13.046Z,98867.50
2022-11-14T19:11:37.621Z,98856.31
2022-11-14T19:14:42.729Z,98874.34
2022-11-14T19:17:48.568Z,98868.31
2022-11-14T19:20:58.865Z,98855.38
2022-11-14T19:24:04.221Z,98877.75
2022-11-14T19:27:15.367Z,98872.50
2022-11-14T19:30:20.351Z,98869.91
2022-11-14T19:33:25.461Z,98865.63
2022-11-14T19:36:58.240Z,98871.69
2022-11-14T19:39:55.528Z,98874.31
2022-11-14T19:43:03.976Z,98878.63
2022-11-14T19:46:09.824Z,98876.09
2022-11-14T19:49:15.403Z,98879.56
2022-11-14T19:52:21.521Z,98877.88
2022-11-14T19:55:27.247Z,98874.41
2022-11-14T19:58:34.932Z,98877.00
2022-11-14T20:01:42.019Z,98876.13
2022-11-14T20:04:47.150Z,98881.31
2022-11-14T20:07:53.969Z,98881.25
2022-11-14T20:11:01.173Z,98885.56
2022-11-14T20:14:06.439Z,98886.38
2022-11-14T20:17:11.570Z,98889.78
2022-11-14T20:20:16.287Z,98884.63
2022-11-14T20:23:21.502Z,98881.97
2022-11-14T20:26:26.982Z,98888.06
2022-11-14T20:29:32.177Z,98882.84
2022-11-14T20:32:37.562Z,98886.41
2022-11-14T20:35:42.992Z,98885.53
2022-11-14T20:38:48.563Z,98888.09
2022-11-14T20:41:53.573Z,98891.56
2022-11-14T20:44:58.606Z,98888.94
2022-11-14T20:48:04.224Z,98891.50
2022-11-14T20:51:20.451Z,98901.03
2022-11-14T20:54:26.887Z,98903.63
2022-11-14T20:57:37.564Z,98903.63
2022-11-14T21:00:42.521Z,98900.19
2022-11-14T21:03:48.539Z,98880.41
2022-11-14T21:06:53.401Z,98895.00
2022-11-14T21:10:17.625Z,98883.81
2022-11-14T21:13:41.394Z,98882.97
2022-11-14T21:16:46.538Z,98887.28
2022-11-14T21:19:58.323Z,98882.13
2022-11-14T21:23:03.204Z,98882.13
2022-11-14T21:26:21.408Z,98884.69
2022-11-14T21:29:27.308Z,98865.78
2022-11-14T21:32:36.186Z,98875.22
2022-11-14T21:35:41.166Z,98876.09
2022-11-14T21:38:46.607Z,98878.66
2022-11-14T21:41:53.099Z,98866.63
2022-11-14T21:44:59.042Z,98867.44
2022-11-14T21:48:04.692Z,98877.78
2022-11-14T21:51:21.031Z,98869.16
2022-11-14T21:54:26.281Z,98867.41
2022-11-14T21:57:31.301Z,98856.19
2022-11-14T22:00:36.286Z,98862.19
2022-11-14T22:04:00.673Z,98851.88
2022-11-14T22:07:07.844Z,98855.31
2022-11-14T22:10:13.365Z,98854.44
2022-11-14T22:13:18.451Z,98855.28
2022-11-14T22:16:23.944Z,98846.66
2022-11-14T22:19:28.838Z,98858.78
2022-11-14T22:22:33.744Z,98861.38
2022-11-14T22:25:39.681Z,98852.78
2022-11-14T22:28:44.920Z,98856.22
2022-11-14T22:31:52.790Z,98870.00
2022-11-14T22:34:57.986Z,98867.41
2022-11-14T22:38:02.987Z,98875.09
2022-11-14T22:41:12.761Z,98867.34
2022-11-14T22:44:17.848Z,98872.47
2022-11-14T22:47:23.035Z,98864.72
2022-11-14T22:50:27.996Z,98860.41
2022-11-14T22:53:36.876Z,98866.38
2022-11-14T22:56:41.925Z,98874.91
2022-11-14T22:59:47.158Z,98862.88
2022-11-14T23:02:53.348Z,98866.28
2022-11-14T23:05:58.683Z,98863.63
2022-11-14T23:09:04.428Z,98873.13
2022-11-14T23:12:09.632Z,98859.22
2022-11-14T23:15:14.942Z,98870.34
2022-11-14T23:18:23.004Z,98878.88
2022-11-14T23:21:33.687Z,98867.81
2022-11-14T23:24:38.580Z,98879.03
2022-11-14T23:27:43.732Z,98868.53
2022-11-14T23:30:48.768Z,98869.31
2022-11-14T23:33:55.875Z,98865.84
2022-11-14T23:37:00.987Z,98864.09
2022-11-14T23:40:07.085Z,98851.22
2022-11-14T23:43:11.815Z,98852.97
2022-11-14T23:46:16.687Z,98856.44
2022-11-14T23:49:21.757Z,98855.59
2022-11-14T23:52:26.479Z,98852.22
2022-11-14T23:55:31.715Z,98860.06
2022-11-14T23:58:37.255Z,98849.66
